sensor_id;sensor_type;location;lat;lon;timestamp;P1;durP1;ratioP1;P2;durP2;ratioP2
3068;SDS011;1545;51.728;8.796;2023-06-22T00:01:17;56.90;;;36.20;;
3068;SDS011;1545;51.728;8.796;2023-06-22T00:03:43;60.97;;;34.93;;
3068;SDS011;1545;51.728;8.796;2023-06-22T00:06:08;71.70;;;38.93;;
3068;SDS011;1545;51.728;8.796;2023-06-22T00:08:34;63.03;;;36.03;;
3068;SDS011;1545;51.728;8.796;2023-06-22T00:10:59;51.67;;;35.70;;
3068;SDS011;1545;51.728;8.796;2023-06-22T00:13:25;63.03;;;37.20;;
3068;SDS011;1545;51.728;8.796;2023-06-22T00:15:51;66.83;;;38.60;;
3068;SDS011;1545;51.728;8.796;2023-06-22T00:18:17;64.40;;;38.57;;
3068;SDS011;1545;51.728;8.796;2023-06-22T00:20:43;53.23;;;35.23;;
3068;SDS011;1545;51.728;8.796;2023-06-22T00:23:10;66.00;;;35.40;;
3068;SDS011;1545;51.728;8.796;2023-06-22T00:25:36;55.43;;;34.77;;
3068;SDS011;1545;51.728;8.796;2023-06-22T00:28:04;64.50;;;34.20;;
3068;SDS011;1545;51.728;8.796;2023-06-22T00:30:31;60.73;;;33.57;;
3068;SDS011;1545;51.728;8.796;2023-06-22T00:32:57;52.43;;;32.87;;
3068;SDS011;1545;51.728;8.796;2023-06-22T00:35:23;46.60;;;31.77;;
3068;SDS011;1545;51.728;8.796;2023-06-22T00:37:53;45.77;;;29.37;;
3068;SDS011;1545;51.728;8.796;2023-06-22T00:40:25;41.90;;;29.83;;
3068;SDS011;1545;51.728;8.796;2023-06-22T00:42:54;48.33;;;29.30;;
3068;SDS011;1545;51.728;8.796;2023-06-22T00:45:21;47.63;;;29.33;;
3068;SDS011;1545;51.728;8.796;2023-06-22T00:47:48;44.43;;;29.07;;
3068;SDS011;1545;51.728;8.796;2023-06-22T00:50:21;50.40;;;29.90;;
3068;SDS011;1545;51.728;8.796;2023-06-22T00:52:48;47.43;;;28.07;;
3068;SDS011;1545;51.728;8.796;2023-06-22T00:55:18;47.70;;;29.23;;
3068;SDS011;1545;51.728;8.796;2023-06-22T00:57:45;62.77;;;30.07;;
3068;SDS011;1545;51.728;8.796;2023-06-22T01:00:12;42.17;;;28.17;;
3068;SDS011;1545;51.728;8.796;2023-06-22T01:02:40;45.93;;;27.50;;
3068;SDS011;1545;51.728;8.796;2023-06-22T01:05:06;42.27;;;26.77;;
3068;SDS011;1545;51.728;8.796;2023-06-22T01:07:35;38.07;;;26.20;;
3068;SDS011;1545;51.728;8.796;2023-06-22T01:10:12;35.77;;;25.20;;
3068;SDS011;1545;51.728;8.796;2023-06-22T01:12:51;41.00;;;27.17;;
3068;SDS011;1545;51.728;8.796;2023-06-22T01:18:14;42.97;;;28.13;;
3068;SDS011;1545;51.728;8.796;2023-06-22T01:20:42;41.43;;;25.17;;
3068;SDS011;1545;51.728;8.796;2023-06-22T01:23:17;35.73;;;25.37;;
3068;SDS011;1545;51.728;8.796;2023-06-22T01:26:05;43.90;;;25.47;;
3068;SDS011;1545;51.728;8.796;2023-06-22T01:28:50;42.63;;;27.27;;
3068;SDS011;1545;51.728;8.796;2023-06-22T01:31:20;37.43;;;25.03;;
3068;SDS011;1545;51.728;8.796;2023-06-22T01:33:52;47.37;;;25.70;;
3068;SDS011;1545;51.728;8.796;2023-06-22T01:36:20;40.07;;;25.33;;
3068;SDS011;1545;51.728;8.796;2023-06-22T01:38:48;47.87;;;24.63;;
3068;SDS011;1545;51.728;8.796;2023-06-22T01:41:15;48.20;;;26.03;;
3068;SDS011;1545;51.728;8.796;2023-06-22T01:43:42;33.30;;;22.53;;
3068;SDS011;1545;51.728;8.796;2023-06-22T01:46:08;40.80;;;25.30;;
3068;SDS011;1545;51.728;8.796;2023-06-22T01:48:34;37.23;;;24.93;;
3068;SDS011;1545;51.728;8.796;2023-06-22T01:51:00;38.27;;;24.67;;
3068;SDS011;1545;51.728;8.796;2023-06-22T01:53:27;33.90;;;24.07;;
3068;SDS011;1545;51.728;8.796;2023-06-22T01:55:54;36.30;;;25.23;;
3068;SDS011;1545;51.728;8.796;2023-06-22T01:58:21;41.00;;;25.97;;
3068;SDS011;1545;51.728;8.796;2023-06-22T02:00:53;33.07;;;25.60;;
3068;SDS011;1545;51.728;8.796;2023-06-22T02:03:34;36.80;;;25.93;;
3068;SDS011;1545;51.728;8.796;2023-06-22T02:06:21;37.47;;;25.97;;
3068;SDS011;1545;51.728;8.796;2023-06-22T02:08:54;38.27;;;24.53;;
3068;SDS011;1545;51.728;8.796;2023-06-22T02:11:24;41.90;;;25.47;;
3068;SDS011;1545;51.728;8.796;2023-06-22T02:13:52;34.83;;;24.00;;
3068;SDS011;1545;51.728;8.796;2023-06-22T02:16:18;39.87;;;24.13;;
3068;SDS011;1545;51.728;8.796;2023-06-22T02:18:48;41.07;;;25.33;;
3068;SDS011;1545;51.728;8.796;2023-06-22T02:21:17;42.00;;;25.50;;
3068;SDS011;1545;51.728;8.796;2023-06-22T02:23:43;36.63;;;26.17;;
3068;SDS011;1545;51.728;8.796;2023-06-22T02:26:08;47.57;;;26.03;;
3068;SDS011;1545;51.728;8.796;2023-06-22T02:28:34;41.67;;;26.07;;
3068;SDS011;1545;51.728;8.796;2023-06-22T02:31:00;39.90;;;27.50;;
3068;SDS011;1545;51.728;8.796;2023-06-22T02:33:26;45.10;;;26.63;;
3068;SDS011;1545;51.728;8.796;2023-06-22T02:35:52;49.93;;;26.40;;
3068;SDS011;1545;51.728;8.796;2023-06-22T02:38:18;40.17;;;26.67;;
3068;SDS011;1545;51.728;8.796;2023-06-22T02:40:45;41.97;;;25.90;;
3068;SDS011;1545;51.728;8.796;2023-06-22T02:43:11;41.73;;;26.07;;
3068;SDS011;1545;51.728;8.796;2023-06-22T02:45:37;41.40;;;25.07;;
3068;SDS011;1545;51.728;8.796;2023-06-22T02:48:02;49.13;;;25.70;;
3068;SDS011;1545;51.728;8.796;2023-06-22T02:50:28;38.73;;;24.50;;
3068;SDS011;1545;51.728;8.796;2023-06-22T02:52:53;38.03;;;24.13;;
3068;SDS011;1545;51.728;8.796;2023-06-22T02:55:19;39.63;;;23.63;;
3068;SDS011;1545;51.728;8.796;2023-06-22T02:57:44;39.40;;;24.87;;
3068;SDS011;1545;51.728;8.796;2023-06-22T03:00:12;47.00;;;24.97;;
3068;SDS011;1545;51.728;8.796;2023-06-22T03:02:45;36.83;;;25.00;;
3068;SDS011;1545;51.728;8.796;2023-06-22T03:05:11;35.20;;;23.70;;
3068;SDS011;1545;51.728;8.796;2023-06-22T03:07:42;33.80;;;23.50;;
3068;SDS011;1545;51.728;8.796;2023-06-22T03:10:08;44.90;;;24.70;;
3068;SDS011;1545;51.728;8.796;2023-06-22T03:12:35;39.73;;;24.10;;
3068;SDS011;1545;51.728;8.796;2023-06-22T03:15:01;38.53;;;23.17;;
3068;SDS011;1545;51.728;8.796;2023-06-22T03:17:27;41.30;;;22.67;;
3068;SDS011;1545;51.728;8.796;2023-06-22T03:19:53;36.30;;;23.27;;
3068;SDS011;1545;51.728;8.796;2023-06-22T03:22:18;36.87;;;23.60;;
3068;SDS011;1545;51.728;8.796;2023-06-22T03:24:43;38.07;;;23.17;;
3068;SDS011;1545;51.728;8.796;2023-06-22T03:27:09;31.93;;;22.67;;
3068;SDS011;1545;51.728;8.796;2023-06-22T03:29:34;38.70;;;22.63;;
3068;SDS011;1545;51.728;8.796;2023-06-22T03:32:00;31.13;;;22.03;;
3068;SDS011;1545;51.728;8.796;2023-06-22T03:34:25;37.47;;;21.70;;
3068;SDS011;1545;51.728;8.796;2023-06-22T03:36:51;32.53;;;21.83;;
3068;SDS011;1545;51.728;8.796;2023-06-22T03:39:17;34.40;;;21.70;;
3068;SDS011;1545;51.728;8.796;2023-06-22T03:41:42;39.93;;;23.07;;
3068;SDS011;1545;51.728;8.796;2023-06-22T03:44:08;32.73;;;22.67;;
3068;SDS011;1545;51.728;8.796;2023-06-22T03:46:37;31.43;;;21.47;;
3068;SDS011;1545;51.728;8.796;2023-06-22T03:49:02;39.37;;;20.87;;
3068;SDS011;1545;51.728;8.796;2023-06-22T03:51:28;29.17;;;21.27;;
3068;SDS011;1545;51.728;8.796;2023-06-22T03:53:54;35.67;;;20.77;;
3068;SDS011;1545;51.728;8.796;2023-06-22T03:56:19;41.47;;;20.87;;
3068;SDS011;1545;51.728;8.796;2023-06-22T03:58:45;31.77;;;19.50;;
3068;SDS011;1545;51.728;8.796;2023-06-22T04:01:11;33.20;;;20.87;;
3068;SDS011;1545;51.728;8.796;2023-06-22T04:03:37;29.30;;;20.73;;
3068;SDS011;1545;51.728;8.796;2023-06-22T04:06:03;33.53;;;18.97;;
3068;SDS011;1545;51.728;8.796;2023-06-22T04:08:29;32.57;;;19.47;;
3068;SDS011;1545;51.728;8.796;2023-06-22T04:10:55;32.87;;;20.70;;
3068;SDS011;1545;51.728;8.796;2023-06-22T04:13:20;30.97;;;19.77;;
3068;SDS011;1545;51.728;8.796;2023-06-22T04:15:46;37.43;;;19.63;;
3068;SDS011;1545;51.728;8.796;2023-06-22T04:18:11;27.00;;;20.80;;
3068;SDS011;1545;51.728;8.796;2023-06-22T04:20:38;24.97;;;19.13;;
3068;SDS011;1545;51.728;8.796;2023-06-22T04:23:04;31.50;;;20.33;;
3068;SDS011;1545;51.728;8.796;2023-06-22T04:25:29;30.50;;;19.30;;
3068;SDS011;1545;51.728;8.796;2023-06-22T04:27:55;25.40;;;19.87;;
3068;SDS011;1545;51.728;8.796;2023-06-22T04:30:20;28.93;;;20.80;;
3068;SDS011;1545;51.728;8.796;2023-06-22T04:32:46;29.33;;;21.13;;
3068;SDS011;1545;51.728;8.796;2023-06-22T04:35:20;27.87;;;20.80;;
3068;SDS011;1545;51.728;8.796;2023-06-22T04:37:47;29.33;;;20.70;;
3068;SDS011;1545;51.728;8.796;2023-06-22T04:40:14;30.00;;;20.43;;
3068;SDS011;1545;51.728;8.796;2023-06-22T04:42:40;30.93;;;21.53;;
3068;SDS011;1545;51.728;8.796;2023-06-22T04:45:07;35.73;;;20.73;;
3068;SDS011;1545;51.728;8.796;2023-06-22T04:47:34;31.20;;;19.50;;
3068;SDS011;1545;51.728;8.796;2023-06-22T04:50:04;26.17;;;19.57;;
3068;SDS011;1545;51.728;8.796;2023-06-22T04:52:31;25.47;;;19.07;;
3068;SDS011;1545;51.728;8.796;2023-06-22T04:54:56;25.70;;;20.20;;
3068;SDS011;1545;51.728;8.796;2023-06-22T04:57:24;29.03;;;19.30;;
3068;SDS011;1545;51.728;8.796;2023-06-22T04:59:57;27.90;;;19.30;;
3068;SDS011;1545;51.728;8.796;2023-06-22T05:02:22;24.83;;;19.10;;
3068;SDS011;1545;51.728;8.796;2023-06-22T05:04:55;29.67;;;19.30;;
3068;SDS011;1545;51.728;8.796;2023-06-22T05:07:21;28.57;;;18.77;;
3068;SDS011;1545;51.728;8.796;2023-06-22T05:09:50;29.97;;;19.20;;
3068;SDS011;1545;51.728;8.796;2023-06-22T05:12:15;26.07;;;18.83;;
3068;SDS011;1545;51.728;8.796;2023-06-22T05:14:41;36.83;;;20.00;;
3068;SDS011;1545;51.728;8.796;2023-06-22T05:17:06;25.97;;;17.83;;
3068;SDS011;1545;51.728;8.796;2023-06-22T05:19:38;36.13;;;17.90;;
3068;SDS011;1545;51.728;8.796;2023-06-22T05:22:04;20.40;;;16.37;;
3068;SDS011;1545;51.728;8.796;2023-06-22T05:24:31;26.77;;;17.23;;
3068;SDS011;1545;51.728;8.796;2023-06-22T05:26:56;24.60;;;16.40;;
3068;SDS011;1545;51.728;8.796;2023-06-22T05:29:22;19.97;;;15.97;;
3068;SDS011;1545;51.728;8.796;2023-06-22T05:31:48;22.10;;;16.43;;
3068;SDS011;1545;51.728;8.796;2023-06-22T05:34:14;22.57;;;16.50;;
3068;SDS011;1545;51.728;8.796;2023-06-22T05:36:39;22.33;;;16.47;;
3068;SDS011;1545;51.728;8.796;2023-06-22T05:39:12;24.07;;;17.07;;
3068;SDS011;1545;51.728;8.796;2023-06-22T05:41:41;20.80;;;17.33;;
3068;SDS011;1545;51.728;8.796;2023-06-22T05:44:08;20.87;;;16.07;;
3068;SDS011;1545;51.728;8.796;2023-06-22T05:46:33;20.87;;;16.20;;
3068;SDS011;1545;51.728;8.796;2023-06-22T05:48:59;20.07;;;15.37;;
3068;SDS011;1545;51.728;8.796;2023-06-22T05:51:24;21.40;;;15.77;;
3068;SDS011;1545;51.728;8.796;2023-06-22T05:53:50;22.00;;;15.60;;
3068;SDS011;1545;51.728;8.796;2023-06-22T05:56:16;21.67;;;16.27;;
3068;SDS011;1545;51.728;8.796;2023-06-22T05:58:42;20.40;;;14.63;;
3068;SDS011;1545;51.728;8.796;2023-06-22T06:01:07;19.87;;;15.47;;
3068;SDS011;1545;51.728;8.796;2023-06-22T06:03:33;23.03;;;14.87;;
3068;SDS011;1545;51.728;8.796;2023-06-22T06:05:58;17.70;;;13.80;;
3068;SDS011;1545;51.728;8.796;2023-06-22T06:08:24;20.97;;;13.60;;
3068;SDS011;1545;51.728;8.796;2023-06-22T06:10:50;19.50;;;14.33;;
3068;SDS011;1545;51.728;8.796;2023-06-22T06:13:17;18.50;;;14.07;;
3068;SDS011;1545;51.728;8.796;2023-06-22T06:15:43;19.37;;;14.53;;
3068;SDS011;1545;51.728;8.796;2023-06-22T06:18:09;18.57;;;14.83;;
3068;SDS011;1545;51.728;8.796;2023-06-22T06:20:34;20.07;;;15.77;;
3068;SDS011;1545;51.728;8.796;2023-06-22T06:23:00;19.53;;;15.77;;
3068;SDS011;1545;51.728;8.796;2023-06-22T06:25:26;22.53;;;15.60;;
3068;SDS011;1545;51.728;8.796;2023-06-22T06:27:53;20.67;;;16.43;;
3068;SDS011;1545;51.728;8.796;2023-06-22T06:30:19;20.60;;;17.17;;
3068;SDS011;1545;51.728;8.796;2023-06-22T06:32:46;22.50;;;16.63;;
3068;SDS011;1545;51.728;8.796;2023-06-22T06:35:12;18.57;;;15.33;;
3068;SDS011;1545;51.728;8.796;2023-06-22T06:37:40;18.30;;;14.77;;
3068;SDS011;1545;51.728;8.796;2023-06-22T06:40:08;25.47;;;15.43;;
3068;SDS011;1545;51.728;8.796;2023-06-22T06:42:35;19.03;;;15.23;;
3068;SDS011;1545;51.728;8.796;2023-06-22T06:45:04;17.33;;;14.80;;
3068;SDS011;1545;51.728;8.796;2023-06-22T06:47:30;18.63;;;15.50;;
3068;SDS011;1545;51.728;8.796;2023-06-22T06:49:55;27.77;;;15.60;;
3068;SDS011;1545;51.728;8.796;2023-06-22T06:52:21;22.53;;;16.47;;
3068;SDS011;1545;51.728;8.796;2023-06-22T06:54:46;28.63;;;18.80;;
3068;SDS011;1545;51.728;8.796;2023-06-22T06:57:12;23.87;;;17.80;;
3068;SDS011;1545;51.728;8.796;2023-06-22T06:59:38;22.37;;;17.67;;
3068;SDS011;1545;51.728;8.796;2023-06-22T07:02:04;31.23;;;18.03;;
3068;SDS011;1545;51.728;8.796;2023-06-22T07:04:30;21.37;;;17.07;;
3068;SDS011;1545;51.728;8.796;2023-06-22T07:06:55;26.37;;;18.40;;
3068;SDS011;1545;51.728;8.796;2023-06-22T07:09:21;23.13;;;17.00;;
3068;SDS011;1545;51.728;8.796;2023-06-22T07:11:46;23.60;;;17.47;;
3068;SDS011;1545;51.728;8.796;2023-06-22T07:14:12;26.20;;;16.50;;
3068;SDS011;1545;51.728;8.796;2023-06-22T07:16:37;20.47;;;15.37;;
3068;SDS011;1545;51.728;8.796;2023-06-22T07:19:03;19.43;;;14.47;;
3068;SDS011;1545;51.728;8.796;2023-06-22T07:21:28;17.00;;;14.23;;
3068;SDS011;1545;51.728;8.796;2023-06-22T07:23:54;15.40;;;13.10;;
3068;SDS011;1545;51.728;8.796;2023-06-22T07:26:20;29.13;;;14.33;;
3068;SDS011;1545;51.728;8.796;2023-06-22T07:28:45;21.00;;;13.53;;
3068;SDS011;1545;51.728;8.796;2023-06-22T07:31:11;17.07;;;13.67;;
3068;SDS011;1545;51.728;8.796;2023-06-22T07:33:36;21.97;;;14.37;;
3068;SDS011;1545;51.728;8.796;2023-06-22T07:36:02;18.53;;;14.63;;
3068;SDS011;1545;51.728;8.796;2023-06-22T07:38:32;22.23;;;13.73;;
3068;SDS011;1545;51.728;8.796;2023-06-22T07:40:58;17.17;;;13.97;;
3068;SDS011;1545;51.728;8.796;2023-06-22T07:43:23;17.00;;;12.80;;
3068;SDS011;1545;51.728;8.796;2023-06-22T07:45:49;22.20;;;13.50;;
3068;SDS011;1545;51.728;8.796;2023-06-22T07:48:21;19.47;;;13.53;;
3068;SDS011;1545;51.728;8.796;2023-06-22T07:50:47;24.03;;;14.37;;
3068;SDS011;1545;51.728;8.796;2023-06-22T07:53:13;16.57;;;12.10;;
3068;SDS011;1545;51.728;8.796;2023-06-22T07:55:38;16.10;;;12.73;;
3068;SDS011;1545;51.728;8.796;2023-06-22T07:58:04;17.30;;;14.03;;
3068;SDS011;1545;51.728;8.796;2023-06-22T08:00:29;16.47;;;12.50;;
3068;SDS011;1545;51.728;8.796;2023-06-22T08:02:55;14.23;;;11.80;;
3068;SDS011;1545;51.728;8.796;2023-06-22T08:05:21;16.40;;;12.53;;
3068;SDS011;1545;51.728;8.796;2023-06-22T08:07:46;15.83;;;12.53;;
3068;SDS011;1545;51.728;8.796;2023-06-22T08:10:12;15.00;;;12.17;;
3068;SDS011;1545;51.728;8.796;2023-06-22T08:12:39;21.07;;;13.53;;
3068;SDS011;1545;51.728;8.796;2023-06-22T08:15:05;21.40;;;14.17;;
3068;SDS011;1545;51.728;8.796;2023-06-22T08:17:31;19.00;;;13.10;;
3068;SDS011;1545;51.728;8.796;2023-06-22T08:19:56;19.70;;;14.23;;
3068;SDS011;1545;51.728;8.796;2023-06-22T08:22:22;18.53;;;12.90;;
3068;SDS011;1545;51.728;8.796;2023-06-22T08:24:52;18.27;;;15.00;;
3068;SDS011;1545;51.728;8.796;2023-06-22T08:27:18;18.73;;;13.47;;
3068;SDS011;1545;51.728;8.796;2023-06-22T08:29:46;20.90;;;13.47;;
3068;SDS011;1545;51.728;8.796;2023-06-22T08:32:12;17.03;;;13.63;;
3068;SDS011;1545;51.728;8.796;2023-06-22T08:34:37;16.30;;;12.40;;
3068;SDS011;1545;51.728;8.796;2023-06-22T08:37:07;12.10;;;10.38;;
3068;SDS011;1545;51.728;8.796;2023-06-22T08:39:33;14.55;;;11.55;;
3068;SDS011;1545;51.728;8.796;2023-06-22T08:41:59;15.07;;;11.45;;
3068;SDS011;1545;51.728;8.796;2023-06-22T08:44:25;12.68;;;9.32;;
3068;SDS011;1545;51.728;8.796;2023-06-22T08:46:50;14.27;;;9.07;;
3068;SDS011;1545;51.728;8.796;2023-06-22T08:49:16;14.32;;;9.07;;
3068;SDS011;1545;51.728;8.796;2023-06-22T08:51:41;15.07;;;8.70;;
3068;SDS011;1545;51.728;8.796;2023-06-22T08:54:06;11.32;;;8.75;;
3068;SDS011;1545;51.728;8.796;2023-06-22T08:56:32;11.82;;;8.55;;
3068;SDS011;1545;51.728;8.796;2023-06-22T08:58:57;11.63;;;8.00;;
3068;SDS011;1545;51.728;8.796;2023-06-22T09:01:23;9.73;;;7.85;;
3068;SDS011;1545;51.728;8.796;2023-06-22T09:03:49;15.27;;;7.53;;
3068;SDS011;1545;51.728;8.796;2023-06-22T09:06:20;9.40;;;7.88;;
3068;SDS011;1545;51.728;8.796;2023-06-22T09:08:46;9.48;;;7.07;;
3068;SDS011;1545;51.728;8.796;2023-06-22T09:11:12;9.80;;;7.68;;
3068;SDS011;1545;51.728;8.796;2023-06-22T09:13:38;9.00;;;7.63;;
3068;SDS011;1545;51.728;8.796;2023-06-22T09:16:03;7.75;;;7.32;;
3068;SDS011;1545;51.728;8.796;2023-06-22T09:18:29;10.43;;;7.47;;
3068;SDS011;1545;51.728;8.796;2023-06-22T09:20:54;8.05;;;7.65;;
3068;SDS011;1545;51.728;8.796;2023-06-22T09:23:20;11.80;;;7.45;;
3068;SDS011;1545;51.728;8.796;2023-06-22T09:25:46;14.40;;;8.32;;
3068;SDS011;1545;51.728;8.796;2023-06-22T09:28:12;10.95;;;7.93;;
3068;SDS011;1545;51.728;8.796;2023-06-22T09:30:39;9.00;;;8.02;;
3068;SDS011;1545;51.728;8.796;2023-06-22T09:33:04;11.38;;;7.68;;
3068;SDS011;1545;51.728;8.796;2023-06-22T09:35:30;13.73;;;8.13;;
3068;SDS011;1545;51.728;8.796;2023-06-22T09:37:55;10.82;;;8.40;;
3068;SDS011;1545;51.728;8.796;2023-06-22T09:40:21;11.50;;;8.57;;
3068;SDS011;1545;51.728;8.796;2023-06-22T09:42:46;13.20;;;8.55;;
3068;SDS011;1545;51.728;8.796;2023-06-22T09:45:12;12.10;;;9.20;;
3068;SDS011;1545;51.728;8.796;2023-06-22T09:47:37;9.75;;;8.95;;
3068;SDS011;1545;51.728;8.796;2023-06-22T09:50:03;13.35;;;9.57;;
3068;SDS011;1545;51.728;8.796;2023-06-22T09:52:29;11.65;;;8.50;;
3068;SDS011;1545;51.728;8.796;2023-06-22T09:54:55;12.63;;;9.50;;
3068;SDS011;1545;51.728;8.796;2023-06-22T09:57:20;10.43;;;9.40;;
3068;SDS011;1545;51.728;8.796;2023-06-22T09:59:46;12.35;;;9.82;;
3068;SDS011;1545;51.728;8.796;2023-06-22T10:02:12;15.02;;;10.73;;
3068;SDS011;1545;51.728;8.796;2023-06-22T10:04:38;11.95;;;9.75;;
3068;SDS011;1545;51.728;8.796;2023-06-22T10:07:05;15.73;;;10.65;;
3068;SDS011;1545;51.728;8.796;2023-06-22T10:09:30;12.93;;;10.82;;
3068;SDS011;1545;51.728;8.796;2023-06-22T10:11:56;13.25;;;10.55;;
3068;SDS011;1545;51.728;8.796;2023-06-22T10:14:21;13.80;;;10.65;;
3068;SDS011;1545;51.728;8.796;2023-06-22T10:16:48;15.27;;;11.18;;
3068;SDS011;1545;51.728;8.796;2023-06-22T10:19:13;14.32;;;10.50;;
3068;SDS011;1545;51.728;8.796;2023-06-22T10:21:39;18.70;;;11.18;;
3068;SDS011;1545;51.728;8.796;2023-06-22T10:24:04;15.32;;;10.55;;
3068;SDS011;1545;51.728;8.796;2023-06-22T10:26:34;12.70;;;10.85;;
3068;SDS011;1545;51.728;8.796;2023-06-22T10:29:01;15.05;;;11.52;;
3068;SDS011;1545;51.728;8.796;2023-06-22T10:31:27;16.63;;;11.40;;
3068;SDS011;1545;51.728;8.796;2023-06-22T10:33:53;11.70;;;10.23;;
3068;SDS011;1545;51.728;8.796;2023-06-22T10:36:19;16.13;;;11.00;;
3068;SDS011;1545;51.728;8.796;2023-06-22T10:38:45;13.50;;;10.80;;
3068;SDS011;1545;51.728;8.796;2023-06-22T10:41:12;14.50;;;11.05;;
3068;SDS011;1545;51.728;8.796;2023-06-22T10:43:37;12.00;;;10.55;;
3068;SDS011;1545;51.728;8.796;2023-06-22T10:46:03;14.48;;;10.93;;
3068;SDS011;1545;51.728;8.796;2023-06-22T10:48:28;14.27;;;11.10;;
3068;SDS011;1545;51.728;8.796;2023-06-22T10:50:54;18.20;;;10.73;;
3068;SDS011;1545;51.728;8.796;2023-06-22T10:53:20;12.32;;;10.75;;
3068;SDS011;1545;51.728;8.796;2023-06-22T10:55:45;13.63;;;10.60;;
3068;SDS011;1545;51.728;8.796;2023-06-22T10:58:11;14.65;;;10.88;;
3068;SDS011;1545;51.728;8.796;2023-06-22T11:00:36;13.93;;;10.32;;
3068;SDS011;1545;51.728;8.796;2023-06-22T11:03:02;14.93;;;10.93;;
3068;SDS011;1545;51.728;8.796;2023-06-22T11:05:27;13.88;;;10.85;;
3068;SDS011;1545;51.728;8.796;2023-06-22T11:07:53;14.93;;;10.80;;
3068;SDS011;1545;51.728;8.796;2023-06-22T11:10:18;12.43;;;11.30;;
3068;SDS011;1545;51.728;8.796;2023-06-22T11:12:44;14.50;;;10.95;;
3068;SDS011;1545;51.728;8.796;2023-06-22T11:15:09;15.13;;;10.48;;
3068;SDS011;1545;51.728;8.796;2023-06-22T11:17:35;12.90;;;11.18;;
3068;SDS011;1545;51.728;8.796;2023-06-22T11:20:01;11.98;;;10.85;;
3068;SDS011;1545;51.728;8.796;2023-06-22T11:22:30;13.25;;;10.93;;
3068;SDS011;1545;51.728;8.796;2023-06-22T11:24:58;13.80;;;10.63;;
3068;SDS011;1545;51.728;8.796;2023-06-22T11:27:23;14.55;;;10.48;;
3068;SDS011;1545;51.728;8.796;2023-06-22T11:29:49;22.67;;;10.25;;
3068;SDS011;1545;51.728;8.796;2023-06-22T11:32:15;12.85;;;10.30;;
3068;SDS011;1545;51.728;8.796;2023-06-22T11:34:40;12.00;;;10.07;;
3068;SDS011;1545;51.728;8.796;2023-06-22T11:37:06;12.00;;;9.80;;
3068;SDS011;1545;51.728;8.796;2023-06-22T11:39:31;14.40;;;10.95;;
3068;SDS011;1545;51.728;8.796;2023-06-22T11:41:57;12.23;;;10.45;;
3068;SDS011;1545;51.728;8.796;2023-06-22T11:44:22;16.33;;;11.40;;
3068;SDS011;1545;51.728;8.796;2023-06-22T11:46:48;14.27;;;10.48;;
3068;SDS011;1545;51.728;8.796;2023-06-22T11:49:13;16.65;;;10.75;;
3068;SDS011;1545;51.728;8.796;2023-06-22T11:51:39;17.55;;;10.70;;
3068;SDS011;1545;51.728;8.796;2023-06-22T11:54:04;17.33;;;11.07;;
3068;SDS011;1545;51.728;8.796;2023-06-22T11:56:30;15.57;;;11.15;;
3068;SDS011;1545;51.728;8.796;2023-06-22T11:58:55;22.23;;;10.88;;
3068;SDS011;1545;51.728;8.796;2023-06-22T12:01:21;17.40;;;11.57;;
3068;SDS011;1545;51.728;8.796;2023-06-22T12:03:46;17.35;;;11.57;;
3068;SDS011;1545;51.728;8.796;2023-06-22T12:06:13;23.75;;;11.93;;
3068;SDS011;1545;51.728;8.796;2023-06-22T12:08:38;18.65;;;11.93;;
3068;SDS011;1545;51.728;8.796;2023-06-22T12:11:04;18.63;;;13.18;;
3068;SDS011;1545;51.728;8.796;2023-06-22T12:13:29;18.65;;;13.57;;
3068;SDS011;1545;51.728;8.796;2023-06-22T12:15:55;28.13;;;13.48;;
3068;SDS011;1545;51.728;8.796;2023-06-22T12:18:20;19.98;;;13.85;;
3068;SDS011;1545;51.728;8.796;2023-06-22T12:20:46;16.95;;;14.73;;
3068;SDS011;1545;51.728;8.796;2023-06-22T12:23:12;21.55;;;13.10;;
3068;SDS011;1545;51.728;8.796;2023-06-22T12:25:37;20.00;;;14.15;;
3068;SDS011;1545;51.728;8.796;2023-06-22T12:28:03;18.13;;;13.82;;
3068;SDS011;1545;51.728;8.796;2023-06-22T12:30:29;17.42;;;13.73;;
3068;SDS011;1545;51.728;8.796;2023-06-22T12:32:55;19.77;;;13.55;;
3068;SDS011;1545;51.728;8.796;2023-06-22T12:35:20;18.45;;;14.82;;
3068;SDS011;1545;51.728;8.796;2023-06-22T12:37:46;19.45;;;15.27;;
3068;SDS011;1545;51.728;8.796;2023-06-22T12:40:12;20.27;;;15.60;;
3068;SDS011;1545;51.728;8.796;2023-06-22T12:42:37;23.73;;;17.53;;
3068;SDS011;1545;51.728;8.796;2023-06-22T12:45:03;24.50;;;17.27;;
3068;SDS011;1545;51.728;8.796;2023-06-22T12:47:29;26.57;;;17.40;;
3068;SDS011;1545;51.728;8.796;2023-06-22T12:49:55;28.73;;;19.30;;
3068;SDS011;1545;51.728;8.796;2023-06-22T12:52:20;30.93;;;19.60;;
3068;SDS011;1545;51.728;8.796;2023-06-22T12:54:46;52.13;;;22.40;;
3068;SDS011;1545;51.728;8.796;2023-06-22T12:57:11;38.07;;;21.80;;
3068;SDS011;1545;51.728;8.796;2023-06-22T12:59:36;42.03;;;24.20;;
3068;SDS011;1545;51.728;8.796;2023-06-22T13:02:02;37.03;;;21.77;;
3068;SDS011;1545;51.728;8.796;2023-06-22T13:04:28;31.10;;;22.50;;
3068;SDS011;1545;51.728;8.796;2023-06-22T13:06:53;40.90;;;24.77;;
3068;SDS011;1545;51.728;8.796;2023-06-22T13:09:19;34.83;;;23.53;;
3068;SDS011;1545;51.728;8.796;2023-06-22T13:11:44;31.07;;;23.37;;
3068;SDS011;1545;51.728;8.796;2023-06-22T13:14:10;40.07;;;24.03;;
3068;SDS011;1545;51.728;8.796;2023-06-22T13:16:36;32.80;;;23.70;;
3068;SDS011;1545;51.728;8.796;2023-06-22T13:19:01;35.40;;;23.50;;
3068;SDS011;1545;51.728;8.796;2023-06-22T13:21:27;34.80;;;23.83;;
3068;SDS011;1545;51.728;8.796;2023-06-22T13:23:52;33.67;;;23.60;;
3068;SDS011;1545;51.728;8.796;2023-06-22T13:26:20;33.40;;;23.23;;
3068;SDS011;1545;51.728;8.796;2023-06-22T13:28:47;40.13;;;24.90;;
3068;SDS011;1545;51.728;8.796;2023-06-22T13:31:12;34.87;;;24.60;;
3068;SDS011;1545;51.728;8.796;2023-06-22T13:33:38;31.43;;;23.43;;
3068;SDS011;1545;51.728;8.796;2023-06-22T13:36:03;37.70;;;24.77;;
3068;SDS011;1545;51.728;8.796;2023-06-22T13:38:31;38.23;;;26.37;;
3068;SDS011;1545;51.728;8.796;2023-06-22T13:40:57;41.00;;;27.17;;
3068;SDS011;1545;51.728;8.796;2023-06-22T13:43:24;57.43;;;31.70;;
3068;SDS011;1545;51.728;8.796;2023-06-22T13:45:51;44.20;;;29.73;;
3068;SDS011;1545;51.728;8.796;2023-06-22T13:48:17;63.97;;;31.37;;
3068;SDS011;1545;51.728;8.796;2023-06-22T13:50:43;53.73;;;33.50;;
3068;SDS011;1545;51.728;8.796;2023-06-22T13:53:08;62.60;;;37.97;;
3068;SDS011;1545;51.728;8.796;2023-06-22T13:55:34;78.70;;;42.90;;
3068;SDS011;1545;51.728;8.796;2023-06-22T13:57:59;85.67;;;43.57;;
3068;SDS011;1545;51.728;8.796;2023-06-22T14:00:25;80.03;;;45.00;;
3068;SDS011;1545;51.728;8.796;2023-06-22T14:02:50;83.17;;;46.23;;
3068;SDS011;1545;51.728;8.796;2023-06-22T14:05:16;103.83;;;49.70;;
3068;SDS011;1545;51.728;8.796;2023-06-22T14:07:41;98.53;;;48.80;;
3068;SDS011;1545;51.728;8.796;2023-06-22T14:10:07;86.03;;;47.40;;
3068;SDS011;1545;51.728;8.796;2023-06-22T14:12:33;106.80;;;50.33;;
3068;SDS011;1545;51.728;8.796;2023-06-22T14:14:59;113.80;;;51.37;;
3068;SDS011;1545;51.728;8.796;2023-06-22T14:17:24;112.27;;;51.83;;
3068;SDS011;1545;51.728;8.796;2023-06-22T14:19:51;107.27;;;51.93;;
3068;SDS011;1545;51.728;8.796;2023-06-22T14:22:20;105.50;;;50.07;;
3068;SDS011;1545;51.728;8.796;2023-06-22T14:24:47;106.03;;;50.03;;
3068;SDS011;1545;51.728;8.796;2023-06-22T14:27:13;116.23;;;51.17;;
3068;SDS011;1545;51.728;8.796;2023-06-22T14:29:39;102.90;;;49.97;;
3068;SDS011;1545;51.728;8.796;2023-06-22T14:32:04;86.87;;;47.47;;
3068;SDS011;1545;51.728;8.796;2023-06-22T14:34:31;98.00;;;50.53;;
3068;SDS011;1545;51.728;8.796;2023-06-22T14:36:57;99.13;;;49.30;;
3068;SDS011;1545;51.728;8.796;2023-06-22T14:39:23;112.83;;;52.33;;
3068;SDS011;1545;51.728;8.796;2023-06-22T14:41:48;114.70;;;53.53;;
3068;SDS011;1545;51.728;8.796;2023-06-22T14:44:14;102.03;;;50.70;;
3068;SDS011;1545;51.728;8.796;2023-06-22T14:46:40;110.97;;;52.53;;